sensor_id;sensor_type;location;lat;lon;timestamp;pressure;altitude;pressure_sealevel;temperature;humidity
5574;BME280;2563;52.242;7.956;2023-05-08T00:01:48;100873.47;;;10.46;100.00
5574;BME280;2563;52.242;7.956;2023-05-08T00:04:13;100866.66;;;10.45;100.00
5574;BME280;2563;52.242;7.956;2023-05-08T00:06:39;100858.03;;;10.46;100.00
5574;BME280;2563;52.242;7.956;2023-05-08T00:09:04;100852.94;;;10.44;100.00
5574;BME280;2563;52.242;7.956;2023-05-08T00:11:30;100845.25;;;10.42;100.00
5574;BME280;2563;52.242;7.956;2023-05-08T00:13:55;100839.25;;;10.42;100.00
5574;BME280;2563;52.242;7.956;2023-05-08T00:16:20;100841.00;;;10.40;100.00
5574;BME280;2563;52.242;7.956;2023-05-08T00:18:46;100835.88;;;10.38;100.00
5574;BME280;2563;52.242;7.956;2023-05-08T00:21:11;100826.41;;;10.40;100.00
5574;BME280;2563;52.242;7.956;2023-05-08T00:23:37;100816.94;;;10.42;100.00
5574;BME280;2563;52.242;7.956;2023-05-08T00:26:05;100816.94;;;10.42;100.00
5574;BME280;2563;52.242;7.956;2023-05-08T00:28:31;100813.53;;;10.40;100.00
5574;BME280;2563;52.242;7.956;2023-05-08T00:30:59;100806.75;;;10.36;100.00
5574;BME280;2563;52.242;7.956;2023-05-08T00:33:25;100806.81;;;10.33;100.00
5574;BME280;2563;52.242;7.956;2023-05-08T00:35:50;100799.91;;;10.35;100.00
5574;BME280;2563;52.242;7.956;2023-05-08T00:38:22;100787.94;;;10.34;100.00
5574;BME280;2563;52.242;7.956;2023-05-08T00:40:47;100793.13;;;10.31;100.00
5574;BME280;2563;52.242;7.956;2023-05-08T00:43:12;100788.91;;;10.27;100.00
5574;BME280;2563;52.242;7.956;2023-05-08T00:45:38;100790.59;;;10.30;100.00
5574;BME280;2563;52.242;7.956;2023-05-08T00:48:04;100785.50;;;10.25;100.00
5574;BME280;2563;52.242;7.956;2023-05-08T00:50:30;100779.47;;;10.26;100.00
5574;BME280;2563;52.242;7.956;2023-05-08T00:52:56;100780.31;;;10.27;100.00
5574;BME280;2563;52.242;7.956;2023-05-08T00:55:23;100788.09;;;10.25;100.00
5574;BME280;2563;52.242;7.956;2023-05-08T00:57:48;100776.91;;;10.25;100.00
5574;BME280;2563;52.242;7.956;2023-05-08T01:00:15;100770.09;;;10.23;100.00
5574;BME280;2563;52.242;7.956;2023-05-08T01:02:42;100770.97;;;10.22;100.00
5574;BME280;2563;52.242;7.956;2023-05-08T01:05:08;100761.53;;;10.23;100.00
5574;BME280;2563;52.242;7.956;2023-05-08T01:07:33;100764.16;;;10.20;100.00
5574;BME280;2563;52.242;7.956;2023-05-08T01:09:59;100763.28;;;10.21;100.00
5574;BME280;2563;52.242;7.956;2023-05-08T01:12:46;100755.56;;;10.21;100.00
5574;BME280;2563;52.242;7.956;2023-05-08T01:15:50;100759.88;;;10.19;100.00
5574;BME280;2563;52.242;7.956;2023-05-08T01:18:27;100755.66;;;10.16;100.00
5574;BME280;2563;52.242;7.956;2023-05-08T01:21:05;100752.25;;;10.16;100.00
5574;BME280;2563;52.242;7.956;2023-05-08T01:34:12;100748.03;;;10.12;100.00
5574;BME280;2563;52.242;7.956;2023-05-08T01:37:01;100739.53;;;10.08;100.00
5574;BME280;2563;52.242;7.956;2023-05-08T01:44:58;100744.69;;;10.07;100.00
5574;BME280;2563;52.242;7.956;2023-05-08T01:47:26;100743.88;;;10.05;100.00
5574;BME280;2563;52.242;7.956;2023-05-08T01:50:29;100747.38;;;10.00;100.00
5574;BME280;2563;52.242;7.956;2023-05-08T01:53:04;100745.69;;;9.98;100.00
5574;BME280;2563;52.242;7.956;2023-05-08T01:55:34;100745.69;;;9.99;100.00
5574;BME280;2563;52.242;7.956;2023-05-08T01:58:06;100744.84;;;9.99;100.00
5574;BME280;2563;52.242;7.956;2023-05-08T02:00:32;100741.44;;;9.98;100.00
5574;BME280;2563;52.242;7.956;2023-05-08T02:02:59;100730.34;;;9.93;100.00
5574;BME280;2563;52.242;7.956;2023-05-08T02:05:26;100740.63;;;9.93;100.00
5574;BME280;2563;52.242;7.956;2023-05-08T02:07:53;100742.38;;;9.93;100.00
5574;BME280;2563;52.242;7.956;2023-05-08T02:10:21;100738.97;;;9.92;100.00
5574;BME280;2563;52.242;7.956;2023-05-08T02:12:49;100739.06;;;9.86;100.00
5574;BME280;2563;52.242;7.956;2023-05-08T02:15:15;100745.91;;;9.87;100.00
5574;BME280;2563;52.242;7.956;2023-05-08T02:17:42;100741.63;;;9.86;100.00
5574;BME280;2563;52.242;7.956;2023-05-08T02:20:11;100738.22;;;9.86;100.00
5574;BME280;2563;52.242;7.956;2023-05-08T02:22:41;100742.59;;;9.82;100.00
5574;BME280;2563;52.242;7.956;2023-05-08T02:25:08;100742.53;;;9.84;100.00
5574;BME280;2563;52.242;7.956;2023-05-08T02:27:39;100739.97;;;9.84;100.00
5574;BME280;2563;52.242;7.956;2023-05-08T02:30:09;100745.97;;;9.84;100.00
5574;BME280;2563;52.242;7.956;2023-05-08T02:32:37;100742.59;;;9.80;100.00
5574;BME280;2563;52.242;7.956;2023-05-08T02:35:04;100752.88;;;9.82;100.00
5574;BME280;2563;52.242;7.956;2023-05-08T02:37:30;100751.28;;;9.75;100.00
5574;BME280;2563;52.242;7.956;2023-05-08T02:39:57;100742.75;;;9.71;100.00
5574;BME280;2563;52.242;7.956;2023-05-08T02:42:23;100741.09;;;9.69;100.00
5574;BME280;2563;52.242;7.956;2023-05-08T02:44:48;100747.06;;;9.69;100.00
5574;BME280;2563;52.242;7.956;2023-05-08T02:47:24;100747.13;;;9.68;100.00
5574;BME280;2563;52.242;7.956;2023-05-08T02:50:03;100745.41;;;9.67;100.00
5574;BME280;2563;52.242;7.956;2023-05-08T02:52:35;100753.13;;;9.67;100.00
5574;BME280;2563;52.242;7.956;2023-05-08T02:55:32;100750.66;;;9.61;100.00
5574;BME280;2563;52.242;7.956;2023-05-08T03:00:53;100739.56;;;9.58;100.00
5574;BME280;2563;52.242;7.956;2023-05-08T03:05:54;100731.94;;;9.54;100.00
5574;BME280;2563;52.242;7.956;2023-05-08T03:08:28;100718.25;;;9.53;100.00
5574;BME280;2563;52.242;7.956;2023-05-08T03:10:58;100722.53;;;9.53;100.00
5574;BME280;2563;52.242;7.956;2023-05-08T03:13:28;100714.03;;;9.49;100.00
5574;BME280;2563;52.242;7.956;2023-05-08T03:15:58;100713.19;;;9.49;100.00
5574;BME280;2563;52.242;7.956;2023-05-08T03:19:00;100704.66;;;9.47;100.00
5574;BME280;2563;52.242;7.956;2023-05-08T03:21:27;100704.66;;;9.47;100.00
5574;BME280;2563;52.242;7.956;2023-05-08T03:23:56;100702.09;;;9.45;100.00
5574;BME280;2563;52.242;7.956;2023-05-08T03:26:22;100696.94;;;9.45;100.00
5574;BME280;2563;52.242;7.956;2023-05-08T03:28:49;100698.66;;;9.46;100.00
5574;BME280;2563;52.242;7.956;2023-05-08T03:31:17;100697.78;;;9.47;100.00
5574;BME280;2563;52.242;7.956;2023-05-08T03:33:46;100696.06;;;9.48;100.00
5574;BME280;2563;52.242;7.956;2023-05-08T03:36:13;100703.75;;;9.49;100.00
5574;BME280;2563;52.242;7.956;2023-05-08T03:38:39;100692.63;;;9.49;100.00
5574;BME280;2563;52.242;7.956;2023-05-08T03:41:05;100703.75;;;9.48;100.00
5574;BME280;2563;52.242;7.956;2023-05-08T03:43:31;100708.13;;;9.44;100.00
5574;BME280;2563;52.242;7.956;2023-05-08T03:45:57;100693.53;;;9.45;100.00
5574;BME280;2563;52.242;7.956;2023-05-08T03:48:23;100696.09;;;9.46;100.00
5574;BME280;2563;52.242;7.956;2023-05-08T03:50:50;100696.03;;;9.49;100.00
5574;BME280;2563;52.242;7.956;2023-05-08T03:53:16;100679.00;;;9.44;100.00
5574;BME280;2563;52.242;7.956;2023-05-08T03:55:41;100683.25;;;9.46;100.00
5574;BME280;2563;52.242;7.956;2023-05-08T04:01:00;100694.34;;;9.48;100.00
5574;BME280;2563;52.242;7.956;2023-05-08T04:09:07;100683.25;;;9.46;100.00
5574;BME280;2563;52.242;7.956;2023-05-08T04:11:41;100688.31;;;9.49;100.00
5574;BME280;2563;52.242;7.956;2023-05-08T04:14:12;100675.53;;;9.46;100.00
5574;BME280;2563;52.242;7.956;2023-05-08T04:16:47;100690.97;;;9.46;100.00
5574;BME280;2563;52.242;7.956;2023-05-08T04:19:18;100695.19;;;9.49;100.00
5574;BME280;2563;52.242;7.956;2023-05-08T04:21:45;100710.34;;;10.11;100.00
5574;BME280;2563;52.242;7.956;2023-05-08T04:24:13;100677.69;;;10.55;100.00
5574;BME280;2563;52.242;7.956;2023-05-08T04:26:40;100682.50;;;10.70;100.00
5574;BME280;2563;52.242;7.956;2023-05-08T04:29:06;100685.44;;;10.92;100.00
5574;BME280;2563;52.242;7.956;2023-05-08T04:31:34;100654.91;;;10.39;100.00
5574;BME280;2563;52.242;7.956;2023-05-08T04:34:01;100656.34;;;10.08;100.00
5574;BME280;2563;52.242;7.956;2023-05-08T04:36:30;100676.28;;;9.98;100.00
5574;BME280;2563;52.242;7.956;2023-05-08T04:38:55;100678.25;;;9.85;100.00
5574;BME280;2563;52.242;7.956;2023-05-08T04:41:21;100683.50;;;9.79;100.00
5574;BME280;2563;52.242;7.956;2023-05-08T04:43:47;100690.44;;;9.74;100.00
5574;BME280;2563;52.242;7.956;2023-05-08T04:46:13;100681.16;;;9.67;100.00
5574;BME280;2563;52.242;7.956;2023-05-08T04:48:38;100708.41;;;9.77;100.00
5574;BME280;2563;52.242;7.956;2023-05-08T04:51:03;100701.47;;;9.79;100.00
5574;BME280;2563;52.242;7.956;2023-05-08T04:53:29;100704.88;;;9.81;100.00
5574;BME280;2563;52.242;7.956;2023-05-08T04:55:54;100693.00;;;9.74;100.00
5574;BME280;2563;52.242;7.956;2023-05-08T04:58:21;100703.28;;;9.74;100.00
5574;BME280;2563;52.242;7.956;2023-05-08T05:00:46;100722.94;;;9.78;100.00
5574;BME280;2563;52.242;7.956;2023-05-08T05:03:11;100732.22;;;9.85;100.00
5574;BME280;2563;52.242;7.956;2023-05-08T05:05:37;100742.28;;;9.99;100.00
5574;BME280;2563;52.242;7.956;2023-05-08T05:08:02;100742.13;;;10.07;100.00
5574;BME280;2563;52.242;7.956;2023-05-08T05:10:28;100735.22;;;10.09;100.00
5574;BME280;2563;52.242;7.956;2023-05-08T05:12:53;100757.34;;;10.17;100.00
5574;BME280;2563;52.242;7.956;2023-05-08T05:15:19;100769.03;;;10.35;100.00
5574;BME280;2563;52.242;7.956;2023-05-08T05:17:44;100777.06;;;10.62;100.00
5574;BME280;2563;52.242;7.956;2023-05-08T05:20:10;100780.78;;;10.89;100.00
5574;BME280;2563;52.242;7.956;2023-05-08T05:22:35;100775.00;;;11.54;100.00
5574;BME280;2563;52.242;7.956;2023-05-08T05:25:00;100764.16;;;11.76;100.00
5574;BME280;2563;52.242;7.956;2023-05-08T05:27:26;100748.44;;;11.50;100.00
5574;BME280;2563;52.242;7.956;2023-05-08T05:29:51;100764.91;;;11.45;100.00
5574;BME280;2563;52.242;7.956;2023-05-08T05:32:17;100787.22;;;11.46;100.00
5574;BME280;2563;52.242;7.956;2023-05-08T05:34:42;100800.00;;;11.50;100.00
5574;BME280;2563;52.242;7.956;2023-05-08T05:37:07;100814.63;;;11.50;100.00
5574;BME280;2563;52.242;7.956;2023-05-08T05:39:33;100825.66;;;11.55;100.00
5574;BME280;2563;52.242;7.956;2023-05-08T05:41:59;100840.03;;;11.65;100.00
5574;BME280;2563;52.242;7.956;2023-05-08T05:44:25;100817.81;;;11.61;100.00
5574;BME280;2563;52.242;7.956;2023-05-08T05:46:50;100839.22;;;11.63;100.00
5574;BME280;2563;52.242;7.956;2023-05-08T05:49:15;100871.09;;;11.98;100.00
5574;BME280;2563;52.242;7.956;2023-05-08T05:51:41;100853.06;;;11.97;100.00
5574;BME280;2563;52.242;7.956;2023-05-08T05:54:06;100867.81;;;11.91;100.00
5574;BME280;2563;52.242;7.956;2023-05-08T05:56:32;100858.41;;;11.89;100.00
5574;BME280;2563;52.242;7.956;2023-05-08T05:58:57;100913.00;;;12.06;100.00
5574;BME280;2563;52.242;7.956;2023-05-08T06:01:22;100899.13;;;12.12;100.00
5574;BME280;2563;52.242;7.956;2023-05-08T06:03:49;100911.41;;;12.02;100.00
5574;BME280;2563;52.242;7.956;2023-05-08T06:06:14;100926.50;;;12.18;100.00
5574;BME280;2563;52.242;7.956;2023-05-08T06:08:39;100937.63;;;12.20;100.00
5574;BME280;2563;52.242;7.956;2023-05-08T06:11:05;100955.94;;;12.45;100.00
5574;BME280;2563;52.242;7.956;2023-05-08T06:13:30;100898.91;;;12.21;100.00
5574;BME280;2563;52.242;7.956;2023-05-08T06:15:56;100956.94;;;12.39;100.00
5574;BME280;2563;52.242;7.956;2023-05-08T06:18:21;100975.19;;;12.66;100.00
5574;BME280;2563;52.242;7.956;2023-05-08T06:20:47;100977.53;;;13.08;100.00
5574;BME280;2563;52.242;7.956;2023-05-08T06:23:12;100936.81;;;13.14;100.00
5574;BME280;2563;52.242;7.956;2023-05-08T06:25:38;100968.88;;;13.09;100.00
5574;BME280;2563;52.242;7.956;2023-05-08T06:28:04;100963.03;;;13.02;100.00
5574;BME280;2563;52.242;7.956;2023-05-08T06:30:32;101025.84;;;13.37;100.00
5574;BME280;2563;52.242;7.956;2023-05-08T06:32:57;101006.53;;;13.78;100.00
5574;BME280;2563;52.242;7.956;2023-05-08T06:35:23;101018.16;;;14.21;100.00
5574;BME280;2563;52.242;7.956;2023-05-08T06:37:48;101005.69;;;14.06;100.00
5574;BME280;2563;52.242;7.956;2023-05-08T06:40:13;101038.34;;;14.10;100.00
5574;BME280;2563;52.242;7.956;2023-05-08T06:42:39;101014.94;;;13.87;100.00
5574;BME280;2563;52.242;7.956;2023-05-08T06:45:06;101033.13;;;13.83;100.00
5574;BME280;2563;52.242;7.956;2023-05-08T06:47:31;101032.50;;;13.75;100.00
5574;BME280;2563;52.242;7.956;2023-05-08T06:49:57;101088.13;;;13.90;100.00
5574;BME280;2563;52.242;7.956;2023-05-08T06:52:22;101085.31;;;13.98;100.00
5574;BME280;2563;52.242;7.956;2023-05-08T06:54:49;101092.91;;;14.04;100.00
5574;BME280;2563;52.242;7.956;2023-05-08T06:57:15;101070.00;;;13.90;100.00
5574;BME280;2563;52.242;7.956;2023-05-08T06:59:40;101113.22;;;14.18;100.00
5574;BME280;2563;52.242;7.956;2023-05-08T07:02:06;101061.03;;;14.02;100.00
5574;BME280;2563;52.242;7.956;2023-05-08T07:04:31;101092.72;;;14.10;100.00
5574;BME280;2563;52.242;7.956;2023-05-08T07:06:57;101123.94;;;14.34;100.00
5574;BME280;2563;52.242;7.956;2023-05-08T07:09:22;101131.63;;;14.92;100.00
5574;BME280;2563;52.242;7.956;2023-05-08T07:11:47;101134.97;;;15.47;100.00
5574;BME280;2563;52.242;7.956;2023-05-08T07:14:13;101082.25;;;15.21;100.00
5574;BME280;2563;52.242;7.956;2023-05-08T07:16:38;101114.81;;;15.03;100.00
5574;BME280;2563;52.242;7.956;2023-05-08T07:19:03;101186.94;;;15.69;100.00
5574;BME280;2563;52.242;7.956;2023-05-08T07:21:29;101169.38;;;16.24;100.00
5574;BME280;2563;52.242;7.956;2023-05-08T07:23:54;101167.59;;;16.48;100.00
5574;BME280;2563;52.242;7.956;2023-05-08T07:26:20;101131.69;;;16.14;100.00
5574;BME280;2563;52.242;7.956;2023-05-08T07:28:46;101158.44;;;15.92;100.00
5574;BME280;2563;52.242;7.956;2023-05-08T07:31:12;101189.81;;;16.10;100.00
5574;BME280;2563;52.242;7.956;2023-05-08T07:33:37;101203.38;;;16.18;100.00
5574;BME280;2563;52.242;7.956;2023-05-08T07:36:03;101180.78;;;15.97;100.00
5574;BME280;2563;52.242;7.956;2023-05-08T07:38:28;101238.22;;;16.36;100.00
5574;BME280;2563;52.242;7.956;2023-05-08T07:40:54;101249.44;;;16.36;100.00
5574;BME280;2563;52.242;7.956;2023-05-08T07:43:22;101253.66;;;16.63;100.00
5574;BME280;2563;52.242;7.956;2023-05-08T07:45:48;101214.38;;;16.48;100.00
5574;BME280;2563;52.242;7.956;2023-05-08T07:48:13;101225.84;;;16.43;100.00
5574;BME280;2563;52.242;7.956;2023-05-08T07:50:38;101238.09;;;16.39;100.00
5574;BME280;2563;52.242;7.956;2023-05-08T07:53:04;101221.22;;;16.27;100.00
5574;BME280;2563;52.242;7.956;2023-05-08T07:55:29;101221.09;;;16.30;100.00
5574;BME280;2563;52.242;7.956;2023-05-08T07:57:54;101256.44;;;16.58;100.00
5574;BME280;2563;52.242;7.956;2023-05-08T08:00:20;101285.41;;;16.94;100.00
5574;BME280;2563;52.242;7.956;2023-05-08T08:02:45;101271.63;;;17.77;100.00
5574;BME280;2563;52.242;7.956;2023-05-08T08:05:11;101220.84;;;17.88;100.00
5574;BME280;2563;52.242;7.956;2023-05-08T08:07:36;101234.31;;;17.56;100.00
5574;BME280;2563;52.242;7.956;2023-05-08T08:10:02;101258.81;;;17.73;100.00
5574;BME280;2563;52.242;7.956;2023-05-08T08:12:28;101233.81;;;17.48;100.00
5574;BME280;2563;52.242;7.956;2023-05-08T08:14:55;101295.59;;;17.85;100.00
5574;BME280;2563;52.242;7.956;2023-05-08T08:17:21;101270.19;;;18.11;100.00
5574;BME280;2563;52.242;7.956;2023-05-08T08:19:46;101296.53;;;18.63;100.00
5574;BME280;2563;52.242;7.956;2023-05-08T08:22:13;101245.41;;;19.15;100.00
5574;BME280;2563;52.242;7.956;2023-05-08T08:24:38;101259.72;;;19.60;100.00
5574;BME280;2563;52.242;7.956;2023-05-08T08:27:03;101235.81;;;19.85;100.00
5574;BME280;2563;52.242;7.956;2023-05-08T08:29:29;101240.06;;;19.87;100.00
5574;BME280;2563;52.242;7.956;2023-05-08T08:31:55;101227.72;;;19.73;100.00
5574;BME280;2563;52.242;7.956;2023-05-08T08:34:20;101241.72;;;20.37;100.00
5574;BME280;2563;52.242;7.956;2023-05-08T08:36:46;101219.28;;;20.02;100.00
5574;BME280;2563;52.242;7.956;2023-05-08T08:39:11;101214.72;;;19.72;100.00
5574;BME280;2563;52.242;7.956;2023-05-08T08:41:37;101255.34;;;19.60;100.00
5574;BME280;2563;52.242;7.956;2023-05-08T08:44:04;101220.53;;;20.10;100.00
5574;BME280;2563;52.242;7.956;2023-05-08T08:46:30;101228.09;;;20.48;100.00
5574;BME280;2563;52.242;7.956;2023-05-08T08:48:57;101199.22;;;20.81;100.00
5574;BME280;2563;52.242;7.956;2023-05-08T08:53:54;101184.19;;;20.37;100.00
5574;BME280;2563;52.242;7.956;2023-05-08T08:56:23;101199.06;;;20.53;100.00
5574;BME280;2563;52.242;7.956;2023-05-08T08:58:56;101200.59;;;20.41;100.00
5574;BME280;2563;52.242;7.956;2023-05-08T09:01:24;101201.09;;;20.64;100.00
5574;BME280;2563;52.242;7.956;2023-05-08T09:03:55;101185.97;;;20.37;100.00
5574;BME280;2563;52.242;7.956;2023-05-08T09:06:21;101204.53;;;20.48;100.00
5574;BME280;2563;52.242;7.956;2023-05-08T09:08:46;101176.53;;;20.50;100.00
5574;BME280;2563;52.242;7.956;2023-05-08T09:11:12;101198.88;;;20.24;100.00
5574;BME280;2563;52.242;7.956;2023-05-08T09:13:37;101177.28;;;20.84;100.00
5574;BME280;2563;52.242;7.956;2023-05-08T09:16:03;101152.19;;;20.80;100.00
5574;BME280;2563;52.242;7.956;2023-05-08T09:18:28;101149.81;;;20.45;100.00
5574;BME280;2563;52.242;7.956;2023-05-08T09:20:53;101147.34;;;20.42;100.00
5574;BME280;2563;52.242;7.956;2023-05-08T09:23:19;101160.59;;;20.23;100.00
5574;BME280;2563;52.242;7.956;2023-05-08T09:25:48;101160.16;;;20.47;100.00
5574;BME280;2563;52.242;7.956;2023-05-08T09:28:23;101162.47;;;20.21;100.00
5574;BME280;2563;52.242;7.956;2023-05-08T09:33:16;101161.75;;;20.81;100.00
5574;BME280;2563;52.242;7.956;2023-05-08T09:35:41;101161.66;;;21.13;100.00
5574;BME280;2563;52.242;7.956;2023-05-08T09:38:07;101159.53;;;21.19;100.00
5574;BME280;2563;52.242;7.956;2023-05-08T09:40:32;101178.13;;;20.85;100.00
5574;BME280;2563;52.242;7.956;2023-05-08T09:43:10;101175.72;;;20.96;100.00
5574;BME280;2563;52.242;7.956;2023-05-08T09:45:36;101187.41;;;21.04;100.00
5574;BME280;2563;52.242;7.956;2023-05-08T09:48:03;101188.63;;;21.29;100.00
5574;BME280;2563;52.242;7.956;2023-05-08T09:50:28;101208.81;;;20.97;100.00
5574;BME280;2563;52.242;7.956;2023-05-08T09:52:54;101207.09;;;21.42;100.00
5574;BME280;2563;52.242;7.956;2023-05-08T09:55:19;101227.16;;;21.27;100.00
5574;BME280;2563;52.242;7.956;2023-05-08T10:00:18;101249.34;;;22.52;100.00
5574;BME280;2563;52.242;7.956;2023-05-08T10:03:00;101250.72;;;22.58;100.00
5574;BME280;2563;52.242;7.956;2023-05-08T10:05:31;101273.19;;;22.35;100.00
5574;BME280;2563;52.242;7.956;2023-05-08T10:08:16;101301.25;;;22.61;100.00
5574;BME280;2563;52.242;7.956;2023-05-08T10:10:42;101308.56;;;22.98;100.00
5574;BME280;2563;52.242;7.956;2023-05-08T10:13:07;101308.44;;;22.72;100.00
5574;BME280;2563;52.242;7.956;2023-05-08T10:15:33;101306.16;;;22.24;100.00
5574;BME280;2563;52.242;7.956;2023-05-08T10:18:03;101323.31;;;22.00;100.00
5574;BME280;2563;52.242;7.956;2023-05-08T10:20:35;101332.47;;;22.23;100.00
5574;BME280;2563;52.242;7.956;2023-05-08T10:23:02;101330.09;;;22.61;100.00
5574;BME280;2563;52.242;7.956;2023-05-08T10:25:32;101331.06;;;22.60;100.00
5574;BME280;2563;52.242;7.956;2023-05-08T10:28:07;101330.38;;;23.12;100.00
5574;BME280;2563;52.242;7.956;2023-05-08T10:30:37;101328.13;;;23.21;100.00
5574;BME280;2563;52.242;7.956;2023-05-08T10:33:08;101328.59;;;23.40;100.00
5574;BME280;2563;52.242;7.956;2023-05-08T10:35:35;101323.56;;;23.37;100.00
5574;BME280;2563;52.242;7.956;2023-05-08T10:38:02;101333.19;;;23.64;100.00
5574;BME280;2563;52.242;7.956;2023-05-08T10:40:28;101349.25;;;23.59;100.00
5574;BME280;2563;52.242;7.956;2023-05-08T10:42:54;101335.88;;;23.49;100.00
5574;BME280;2563;52.242;7.956;2023-05-08T10:45:20;101324.28;;;23.39;100.00
5574;BME280;2563;52.242;7.956;2023-05-08T10:53:14;101341.47;;;22.89;100.00
5574;BME280;2563;52.242;7.956;2023-05-08T10:55:44;101342.22;;;22.49;100.00
5574;BME280;2563;52.242;7.956;2023-05-08T11:03:29;101319.47;;;23.46;100.00
5574;BME280;2563;52.242;7.956;2023-05-08T11:05:55;101313.66;;;24.06;100.00
5574;BME280;2563;52.242;7.956;2023-05-08T11:08:26;101310.31;;;23.78;100.00
5574;BME280;2563;52.242;7.956;2023-05-08T11:13:28;101304.28;;;23.36;100.00
5574;BME280;2563;52.242;7.956;2023-05-08T11:15:55;101313.13;;;23.35;100.00
5574;BME280;2563;52.242;7.956;2023-05-08T11:18:21;101303.19;;;23.13;100.00
5574;BME280;2563;52.242;7.956;2023-05-08T11:21:02;101316.88;;;23.19;100.00
5574;BME280;2563;52.242;7.956;2023-05-08T11:26:01;101316.78;;;23.20;100.00
5574;BME280;2563;52.242;7.956;2023-05-08T11:28:31;101317.47;;;23.09;100.00
5574;BME280;2563;52.242;7.956;2023-05-08T11:31:01;101317.56;;;23.08;100.00
5574;BME280;2563;52.242;7.956;2023-05-08T11:33:31;101324.72;;;23.46;100.00
5574;BME280;2563;52.242;7.956;2023-05-08T11:38:37;101315.38;;;23.14;100.00
5574;BME280;2563;52.242;7.956;2023-05-08T11:41:10;101311.88;;;23.01;100.00
5574;BME280;2563;52.242;7.956;2023-05-08T11:46:21;101319.38;;;23.47;100.00
5574;BME280;2563;52.242;7.956;2023-05-08T11:48:47;101319.25;;;23.09;100.00
5574;BME280;2563;52.242;7.956;2023-05-08T11:51:16;101327.97;;;23.09;100.00
5574;BME280;2563;52.242;7.956;2023-05-08T11:53:42;101320.72;;;22.71;100.00
5574;BME280;2563;52.242;7.956;2023-05-08T11:56:08;101325.72;;;22.33;100.00
5574;BME280;2563;52.242;7.956;2023-05-08T11:58:34;101320.25;;;22.50;100.00
5574;BME280;2563;52.242;7.956;2023-05-08T12:01:00;101335.34;;;22.76;100.00
5574;BME280;2563;52.242;7.956;2023-05-08T12:03:26;101335.97;;;22.79;100.00
5574;BME280;2563;52.242;7.956;2023-05-08T12:05:56;101330.72;;;22.79;100.00
5574;BME280;2563;52.242;7.956;2023-05-08T12:08:22;101331.56;;;23.08;100.00
5574;BME280;2563;52.242;7.956;2023-05-08T12:10:52;101330.66;;;22.66;100.00
5574;BME280;2563;52.242;7.956;2023-05-08T12:13:18;101330.25;;;23.01;100.00
5574;BME280;2563;52.242;7.956;2023-05-08T12:15:45;101332.13;;;22.99;100.00
5574;BME280;2563;52.242;7.956;2023-05-08T12:18:11;101330.28;;;22.72;100.00
5574;BME280;2563;52.242;7.956;2023-05-08T12:20:36;101328.56;;;23.00;100.00
5574;BME280;2563;52.242;7.956;2023-05-08T12:23:02;101332.22;;;23.25;100.00
5574;BME280;2563;52.242;7.956;2023-05-08T12:25:28;101335.41;;;23.30;100.00
5574;BME280;2563;52.242;7.956;2023-05-08T12:27:55;101332.69;;;23.84;100.00
5574;BME280;2563;52.242;7.956;2023-05-08T12:30:21;101339.00;;;24.46;100.00
5574;BME280;2563;52.242;7.956;2023-05-08T12:32:47;101329.88;;;24.13;100.00
5574;BME280;2563;52.242;7.956;2023-05-08T12:35:13;101330.28;;;24.19;100.00
5574;BME280;2563;52.242;7.956;2023-05-08T12:37:39;101329.22;;;24.22;100.00
5574;BME280;2563;52.242;7.956;2023-05-08T12:40:06;101330.03;;;24.61;100.00
5574;BME280;2563;52.242;7.956;2023-05-08T12:42:45;101340.53;;;25.70;100.00
5574;BME280;2563;52.242;7.956;2023-05-08T12:45:22;101338.00;;;25.57;100.00
5574;BME280;2563;52.242;7.956;2023-05-08T12:47:48;101336.56;;;25.29;100.00
5574;BME280;2563;52.242;7.956;2023-05-08T12:50:15;101329.66;;;25.15;100.00
5574;BME280;2563;52.242;7.956;2023-05-08T12:52:41;101326.44;;;25.36;100.00
5574;BME280;2563;52.242;7.956;2023-05-08T12:55:25;101332.69;;;25.46;100.00
5574;BME280;2563;52.242;7.956;2023-05-08T12:58:11;101324.09;;;25.66;100.00
5574;BME280;2563;52.242;7.956;2023-05-08T13:00:41;101320.22;;;24.76;100.00
5574;BME280;2563;52.242;7.956;2023-05-08T13:03:11;101316.88;;;25.46;100.00
5574;BME280;2563;52.242;7.956;2023-05-08T13:05:40;101310.47;;;25.26;100.00
5574;BME280;2563;52.242;7.956;2023-05-08T13:08:07;101300.34;;;24.96;100.00
5574;BME280;2563;52.242;7.956;2023-05-08T13:13:10;101279.16;;;23.98;100.00
5574;BME280;2563;52.242;7.956;2023-05-08T13:15:35;101287.31;;;23.42;100.00
5574;BME280;2563;52.242;7.956;2023-05-08T13:18:00;101291.25;;;23.75;100.00
5574;BME280;2563;52.242;7.956;2023-05-08T13:20:26;101282.00;;;23.82;100.00
5574;BME280;2563;52.242;7.956;2023-05-08T13:22:51;101287.34;;;24.06;100.00
5574;BME280;2563;52.242;7.956;2023-05-08T13:25:16;101296.47;;;24.89;100.00
5574;BME280;2563;52.242;7.956;2023-05-08T13:27:42;101300.34;;;24.96;100.00
5574;BME280;2563;52.242;7.956;2023-05-08T13:30:07;101298.03;;;24.67;100.00
5574;BME280;2563;52.242;7.956;2023-05-08T13:32:33;101303.41;;;25.38;100.00
5574;BME280;2563;52.242;7.956;2023-05-08T13:34:58;101291.31;;;24.87;100.00
5574;BME280;2563;52.242;7.956;2023-05-08T13:37:23;101285.84;;;24.40;100.00
5574;BME280;2563;52.242;7.956;2023-05-08T13:39:49;101294.66;;;24.65;100.00
5574;BME280;2563;52.242;7.956;2023-05-08T13:42:14;101291.63;;;24.46;100.00
5574;BME280;2563;52.242;7.956;2023-05-08T13:44:39;101271.53;;;23.68;100.00
5574;BME280;2563;52.242;7.956;2023-05-08T13:47:05;101270.84;;;23.66;100.00
5574;BME280;2563;52.242;7.956;2023-05-08T13:49:30;101263.78;;;23.66;100.00
5574;BME280;2563;52.242;7.956;2023-05-08T13:51:55;101267.88;;;23.57;100.00
5574;BME280;2563;52.242;7.956;2023-05-08T13:54:21;101267.59;;;23.75;100.00
5574;BME280;2563;52.242;7.956;2023-05-08T13:56:46;101266.72;;;23.62;100.00
5574;BME280;2563;52.242;7.956;2023-05-08T13:59:12;101253.22;;;23.28;100.00
5574;BME280;2563;52.242;7.956;2023-05-08T14:01:38;101258.44;;;23.15;100.00
5574;BME280;2563;52.242;7.956;2023-05-08T14:04:03;101263.97;;;23.63;100.00
5574;BME280;2563;52.242;7.956;2023-05-08T14:06:29;101266.59;;;23.63;100.00